sensor_id;sensor_type;location;lat;lon;timestamp;pressure;altitude;pressure_sealevel;temperature;humidity
46944;BME280;32678;43.852;25.952;2022-12-20T00:03:13;103748.56;;;2.13;60.60
46944;BME280;32678;43.852;25.952;2022-12-20T00:08:13;103744.81;;;2.24;60.52
46944;BME280;32678;43.852;25.952;2022-12-20T00:13:10;103753.53;;;2.26;60.09
46944;BME280;32678;43.852;25.952;2022-12-20T00:18:07;103750.47;;;2.35;59.82
46944;BME280;32678;43.852;25.952;2022-12-20T00:23:04;103751.09;;;2.29;60.01
46944;BME280;32678;43.852;25.952;2022-12-20T00:28:01;103742.88;;;2.38;60.23
46944;BME280;32678;43.852;25.952;2022-12-20T00:32:59;103738.91;;;2.44;59.63
46944;BME280;32678;43.852;25.952;2022-12-20T00:37:56;103744.06;;;2.44;59.56
46944;BME280;32678;43.852;25.952;2022-12-20T00:42:52;103750.31;;;2.49;59.20
46944;BME280;32678;43.852;25.952;2022-12-20T00:47:49;103743.31;;;2.11;59.91
46944;BME280;32678;43.852;25.952;2022-12-20T00:52:46;103726.16;;;2.31;59.00
46944;BME280;32678;43.852;25.952;2022-12-20T00:57:42;103722.88;;;2.35;59.14
46944;BME280;32678;43.852;25.952;2022-12-20T01:02:39;103715.13;;;2.35;59.15
46944;BME280;32678;43.852;25.952;2022-12-20T01:07:37;103715.41;;;2.06;59.50
46944;BME280;32678;43.852;25.952;2022-12-20T01:12:33;103710.78;;;1.99;59.95
46944;BME280;32678;43.852;25.952;2022-12-20T01:17:30;103689.03;;;1.61;61.43
46944;BME280;32678;43.852;25.952;2022-12-20T01:22:27;103704.50;;;1.60;61.84
46944;BME280;32678;43.852;25.952;2022-12-20T01:27:24;103689.78;;;1.59;62.12
46944;BME280;32678;43.852;25.952;2022-12-20T01:32:21;103690.44;;;1.89;61.54
46944;BME280;32678;43.852;25.952;2022-12-20T01:37:18;103677.94;;;1.98;61.07
46944;BME280;32678;43.852;25.952;2022-12-20T01:42:17;103670.53;;;2.23;60.29
46944;BME280;32678;43.852;25.952;2022-12-20T01:47:15;103666.25;;;2.24;60.09
46944;BME280;32678;43.852;25.952;2022-12-20T01:52:12;103663.81;;;2.09;60.07
46944;BME280;32678;43.852;25.952;2022-12-20T01:57:11;103653.03;;;2.17;59.73
46944;BME280;32678;43.852;25.952;2022-12-20T02:02:08;103648.66;;;2.34;59.03
46944;BME280;32678;43.852;25.952;2022-12-20T02:07:07;103645.16;;;2.34;59.29
46944;BME280;32678;43.852;25.952;2022-12-20T02:12:09;103632.34;;;2.37;59.00
46944;BME280;32678;43.852;25.952;2022-12-20T02:17:08;103627.44;;;2.24;59.34
46944;BME280;32678;43.852;25.952;2022-12-20T02:22:11;103606.47;;;2.37;59.19
46944;BME280;32678;43.852;25.952;2022-12-20T02:32:32;103603.09;;;2.57;58.76
46944;BME280;32678;43.852;25.952;2022-12-20T02:37:32;103597.81;;;2.55;58.62
46944;BME280;32678;43.852;25.952;2022-12-20T02:42:29;103594.75;;;2.64;58.13
46944;BME280;32678;43.852;25.952;2022-12-20T02:47:29;103600.09;;;2.67;58.40
46944;BME280;32678;43.852;25.952;2022-12-20T02:52:27;103597.50;;;2.67;58.06
46944;BME280;32678;43.852;25.952;2022-12-20T02:57:26;103592.41;;;2.32;57.97
46944;BME280;32678;43.852;25.952;2022-12-20T03:02:28;103580.41;;;1.97;60.30
46944;BME280;32678;43.852;25.952;2022-12-20T03:07:45;103586.06;;;1.88;59.84
46944;BME280;32678;43.852;25.952;2022-12-20T03:12:42;103574.34;;;1.96;60.41
46944;BME280;32678;43.852;25.952;2022-12-20T03:17:39;103584.63;;;2.12;60.83
46944;BME280;32678;43.852;25.952;2022-12-20T03:22:38;103573.59;;;2.16;60.08
46944;BME280;32678;43.852;25.952;2022-12-20T03:27:38;103575.09;;;2.31;59.86
46944;BME280;32678;43.852;25.952;2022-12-20T03:32:35;103578.25;;;2.43;59.41
46944;BME280;32678;43.852;25.952;2022-12-20T03:37:31;103582.25;;;2.54;59.42
46944;BME280;32678;43.852;25.952;2022-12-20T03:42:34;103582.78;;;1.92;59.61
46944;BME280;32678;43.852;25.952;2022-12-20T03:47:32;103580.22;;;0.89;62.62
46944;BME280;32678;43.852;25.952;2022-12-20T03:52:28;103575.00;;;0.55;64.85
46944;BME280;32678;43.852;25.952;2022-12-20T03:57:25;103573.56;;;0.76;65.48
46944;BME280;32678;43.852;25.952;2022-12-20T04:02:23;103569.44;;;0.80;65.23
46944;BME280;32678;43.852;25.952;2022-12-20T04:07:24;103558.72;;;0.72;65.33
46944;BME280;32678;43.852;25.952;2022-12-20T04:12:23;103544.22;;;0.58;65.88
46944;BME280;32678;43.852;25.952;2022-12-20T04:17:20;103543.47;;;0.77;65.24
46944;BME280;32678;43.852;25.952;2022-12-20T04:22:19;103537.19;;;0.56;65.85
46944;BME280;32678;43.852;25.952;2022-12-20T04:27:30;103532.38;;;0.79;66.69
46944;BME280;32678;43.852;25.952;2022-12-20T04:32:29;103531.56;;;0.97;65.68
46944;BME280;32678;43.852;25.952;2022-12-20T04:37:26;103502.81;;;1.24;65.69
46944;BME280;32678;43.852;25.952;2022-12-20T04:42:25;103533.88;;;1.79;64.65
46944;BME280;32678;43.852;25.952;2022-12-20T04:47:26;103530.59;;;2.01;63.88
46944;BME280;32678;43.852;25.952;2022-12-20T04:52:24;103541.03;;;2.22;63.24
46944;BME280;32678;43.852;25.952;2022-12-20T04:57:44;103556.47;;;2.38;62.09
46944;BME280;32678;43.852;25.952;2022-12-20T05:02:44;103561.25;;;2.48;62.35
46944;BME280;32678;43.852;25.952;2022-12-20T05:07:45;103551.28;;;2.57;62.11
46944;BME280;32678;43.852;25.952;2022-12-20T05:12:43;103543.50;;;2.76;62.12
46944;BME280;32678;43.852;25.952;2022-12-20T05:17:48;103546.56;;;2.87;61.73
46944;BME280;32678;43.852;25.952;2022-12-20T05:22:45;103534.03;;;2.77;62.04
46944;BME280;32678;43.852;25.952;2022-12-20T05:28:03;103547.06;;;2.78;61.79
46944;BME280;32678;43.852;25.952;2022-12-20T05:33:04;103531.34;;;2.75;61.59
46944;BME280;32678;43.852;25.952;2022-12-20T05:38:05;103537.34;;;2.74;60.39
46944;BME280;32678;43.852;25.952;2022-12-20T05:43:02;103530.28;;;2.70;60.83
46944;BME280;32678;43.852;25.952;2022-12-20T05:48:12;103518.91;;;2.67;61.02
46944;BME280;32678;43.852;25.952;2022-12-20T05:53:10;103505.78;;;2.83;60.92
46944;BME280;32678;43.852;25.952;2022-12-20T05:58:15;103505.47;;;2.56;60.83
46944;BME280;32678;43.852;25.952;2022-12-20T06:03:26;103500.00;;;2.69;60.83
46944;BME280;32678;43.852;25.952;2022-12-20T06:08:28;103507.53;;;2.84;61.12
46944;BME280;32678;43.852;25.952;2022-12-20T06:13:35;103503.34;;;3.07;60.70
46944;BME280;32678;43.852;25.952;2022-12-20T06:18:32;103519.31;;;2.96;60.38
46944;BME280;32678;43.852;25.952;2022-12-20T06:23:31;103525.19;;;2.92;59.24
46944;BME280;32678;43.852;25.952;2022-12-20T06:28:35;103514.44;;;2.24;61.15
46944;BME280;32678;43.852;25.952;2022-12-20T06:33:39;103518.69;;;1.50;62.84
46944;BME280;32678;43.852;25.952;2022-12-20T06:38:44;103516.75;;;1.10;65.40
46944;BME280;32678;43.852;25.952;2022-12-20T06:43:43;103507.75;;;1.02;65.64
46944;BME280;32678;43.852;25.952;2022-12-20T06:48:41;103509.81;;;0.75;67.66
46944;BME280;32678;43.852;25.952;2022-12-20T06:53:39;103505.78;;;0.98;67.49
46944;BME280;32678;43.852;25.952;2022-12-20T06:58:36;103499.63;;;1.48;65.32
46944;BME280;32678;43.852;25.952;2022-12-20T07:03:35;103503.03;;;1.11;66.57
46944;BME280;32678;43.852;25.952;2022-12-20T07:08:33;103486.47;;;1.08;67.21
46944;BME280;32678;43.852;25.952;2022-12-20T07:13:29;103509.59;;;1.40;66.96
46944;BME280;32678;43.852;25.952;2022-12-20T07:18:26;103504.19;;;1.71;66.65
46944;BME280;32678;43.852;25.952;2022-12-20T07:23:23;103503.78;;;1.81;65.66
46944;BME280;32678;43.852;25.952;2022-12-20T07:34:04;103490.47;;;0.67;67.03
46944;BME280;32678;43.852;25.952;2022-12-20T07:39:51;103473.97;;;0.81;68.19
46944;BME280;32678;43.852;25.952;2022-12-20T07:45:40;103497.47;;;0.70;67.49
46944;BME280;32678;43.852;25.952;2022-12-20T07:56:46;103506.69;;;0.16;70.45
46944;BME280;32678;43.852;25.952;2022-12-20T08:01:43;103505.25;;;0.21;71.39
46944;BME280;32678;43.852;25.952;2022-12-20T08:06:40;103506.06;;;0.53;70.54
46944;BME280;32678;43.852;25.952;2022-12-20T08:11:38;103496.00;;;0.75;70.40
46944;BME280;32678;43.852;25.952;2022-12-20T08:16:37;103497.44;;;0.52;70.03
46944;BME280;32678;43.852;25.952;2022-12-20T08:21:37;103501.03;;;0.56;69.31
46944;BME280;32678;43.852;25.952;2022-12-20T08:26:37;103495.19;;;0.10;71.70
46944;BME280;32678;43.852;25.952;2022-12-20T08:31:36;103489.28;;;0.12;72.15
46944;BME280;32678;43.852;25.952;2022-12-20T08:36:34;103485.31;;;0.67;70.65
46944;BME280;32678;43.852;25.952;2022-12-20T08:41:32;103486.97;;;0.83;70.91
46944;BME280;32678;43.852;25.952;2022-12-20T08:46:36;103470.72;;;1.03;68.77
46944;BME280;32678;43.852;25.952;2022-12-20T08:51:33;103464.50;;;1.16;69.01
46944;BME280;32678;43.852;25.952;2022-12-20T08:56:30;103471.34;;;1.51;67.38
46944;BME280;32678;43.852;25.952;2022-12-20T09:01:27;103454.28;;;1.01;67.53
46944;BME280;32678;43.852;25.952;2022-12-20T09:06:25;103449.63;;;0.94;68.91
46944;BME280;32678;43.852;25.952;2022-12-20T09:11:24;103442.47;;;1.06;68.74
46944;BME280;32678;43.852;25.952;2022-12-20T09:16:22;103429.38;;;1.56;68.30
46944;BME280;32678;43.852;25.952;2022-12-20T09:21:19;103427.34;;;1.68;67.26
46944;BME280;32678;43.852;25.952;2022-12-20T09:26:17;103418.66;;;1.49;66.64
46944;BME280;32678;43.852;25.952;2022-12-20T09:31:18;103418.91;;;1.18;66.29
46944;BME280;32678;43.852;25.952;2022-12-20T09:36:17;103412.56;;;0.94;68.11
46944;BME280;32678;43.852;25.952;2022-12-20T09:41:23;103398.84;;;0.77;69.32
46944;BME280;32678;43.852;25.952;2022-12-20T09:46:21;103383.50;;;0.28;70.87
46944;BME280;32678;43.852;25.952;2022-12-20T09:51:23;103373.34;;;0.49;72.17
46944;BME280;32678;43.852;25.952;2022-12-20T09:56:27;103361.28;;;0.83;71.17
46944;BME280;32678;43.852;25.952;2022-12-20T10:01:27;103347.19;;;0.59;71.65
46944;BME280;32678;43.852;25.952;2022-12-20T10:06:41;103328.16;;;0.93;72.33
46944;BME280;32678;43.852;25.952;2022-12-20T10:11:58;103318.44;;;1.62;69.61
46944;BME280;32678;43.852;25.952;2022-12-20T10:17:00;103309.41;;;1.72;68.66
46944;BME280;32678;43.852;25.952;2022-12-20T10:22:02;103295.19;;;2.02;67.22
46944;BME280;32678;43.852;25.952;2022-12-20T10:27:01;103288.03;;;1.57;69.58
46944;BME280;32678;43.852;25.952;2022-12-20T10:32:09;103284.84;;;1.43;68.93
46944;BME280;32678;43.852;25.952;2022-12-20T10:37:11;103274.97;;;1.73;69.25
46944;BME280;32678;43.852;25.952;2022-12-20T10:42:21;103261.38;;;1.58;68.56
46944;BME280;32678;43.852;25.952;2022-12-20T10:47:22;103252.44;;;1.13;70.54
46944;BME280;32678;43.852;25.952;2022-12-20T10:52:20;103237.28;;;1.59;70.56
46944;BME280;32678;43.852;25.952;2022-12-20T10:57:17;103238.66;;;2.11;69.14
46944;BME280;32678;43.852;25.952;2022-12-20T11:02:28;103228.91;;;2.47;67.63
46944;BME280;32678;43.852;25.952;2022-12-20T11:07:36;103228.56;;;2.83;65.29
46944;BME280;32678;43.852;25.952;2022-12-20T11:12:51;103213.75;;;2.36;66.90
46944;BME280;32678;43.852;25.952;2022-12-20T11:17:50;103204.38;;;2.17;67.51
46944;BME280;32678;43.852;25.952;2022-12-20T11:22:50;103199.13;;;2.58;66.61
46944;BME280;32678;43.852;25.952;2022-12-20T11:27:50;103187.78;;;2.79;66.37
46944;BME280;32678;43.852;25.952;2022-12-20T11:33:00;103176.44;;;2.97;65.72
46944;BME280;32678;43.852;25.952;2022-12-20T11:38:02;103170.84;;;3.34;64.41
46944;BME280;32678;43.852;25.952;2022-12-20T11:43:20;103147.19;;;3.25;64.69
46944;BME280;32678;43.852;25.952;2022-12-20T11:48:24;103150.03;;;3.33;63.98
46944;BME280;32678;43.852;25.952;2022-12-20T11:53:25;103145.34;;;3.46;63.70
46944;BME280;32678;43.852;25.952;2022-12-20T11:58:24;103133.13;;;3.69;63.35
46944;BME280;32678;43.852;25.952;2022-12-20T12:03:26;103115.72;;;3.65;62.75
46944;BME280;32678;43.852;25.952;2022-12-20T12:08:24;103110.47;;;3.64;63.24
46944;BME280;32678;43.852;25.952;2022-12-20T12:13:24;103114.75;;;3.63;63.62
46944;BME280;32678;43.852;25.952;2022-12-20T12:18:23;103103.41;;;3.86;62.97
46944;BME280;32678;43.852;25.952;2022-12-20T12:23:21;103091.19;;;3.82;63.47
46944;BME280;32678;43.852;25.952;2022-12-20T12:28:25;103087.91;;;3.88;62.67
46944;BME280;32678;43.852;25.952;2022-12-20T12:33:27;103080.66;;;4.05;62.62
46944;BME280;32678;43.852;25.952;2022-12-20T12:43:58;103071.09;;;4.04;62.44
46944;BME280;32678;43.852;25.952;2022-12-20T12:49:00;103068.56;;;4.05;62.40
46944;BME280;32678;43.852;25.952;2022-12-20T12:54:13;103058.19;;;4.07;62.52
46944;BME280;32678;43.852;25.952;2022-12-20T13:04:30;103053.56;;;3.97;62.93
46944;BME280;32678;43.852;25.952;2022-12-20T13:09:55;103052.25;;;4.11;62.84
46944;BME280;32678;43.852;25.952;2022-12-20T13:14:59;103051.47;;;4.13;61.76
46944;BME280;32678;43.852;25.952;2022-12-20T13:19:57;103022.75;;;4.07;61.90
46944;BME280;32678;43.852;25.952;2022-12-20T13:24:55;103038.59;;;4.16;62.21
46944;BME280;32678;43.852;25.952;2022-12-20T13:29:54;103029.19;;;4.20;62.07
46944;BME280;32678;43.852;25.952;2022-12-20T13:34:52;103030.19;;;4.25;61.53
46944;BME280;32678;43.852;25.952;2022-12-20T13:39:51;103025.16;;;4.29;62.02
46944;BME280;32678;43.852;25.952;2022-12-20T13:44:48;103013.75;;;4.26;62.21
46944;BME280;32678;43.852;25.952;2022-12-20T13:49:46;103012.63;;;4.16;62.74
46944;BME280;32678;43.852;25.952;2022-12-20T13:54:43;103011.28;;;4.30;62.31
46944;BME280;32678;43.852;25.952;2022-12-20T13:59:42;103005.94;;;4.24;62.11
46944;BME280;32678;43.852;25.952;2022-12-20T14:04:42;103000.75;;;4.24;62.45
46944;BME280;32678;43.852;25.952;2022-12-20T14:09:42;102994.75;;;4.27;62.08
46944;BME280;32678;43.852;25.952;2022-12-20T14:14:42;102986.22;;;4.01;62.55
46944;BME280;32678;43.852;25.952;2022-12-20T14:19:39;102979.34;;;4.03;63.17
46944;BME280;32678;43.852;25.952;2022-12-20T14:24:44;102979.16;;;3.96;63.44
46944;BME280;32678;43.852;25.952;2022-12-20T14:29:50;102977.38;;;3.95;63.67
46944;BME280;32678;43.852;25.952;2022-12-20T14:34:51;102967.22;;;4.02;63.87
46944;BME280;32678;43.852;25.952;2022-12-20T14:39:53;102961.44;;;4.12;64.19
46944;BME280;32678;43.852;25.952;2022-12-20T14:44:51;102949.22;;;4.08;64.17
46944;BME280;32678;43.852;25.952;2022-12-20T14:49:58;102950.19;;;4.12;64.35
46944;BME280;32678;43.852;25.952;2022-12-20T14:54:59;102941.69;;;4.17;64.86
46944;BME280;32678;43.852;25.952;2022-12-20T15:00:11;102937.56;;;4.24;64.99
46944;BME280;32678;43.852;25.952;2022-12-20T15:10:24;102935.03;;;3.96;65.89
46944;BME280;32678;43.852;25.952;2022-12-20T15:15:22;102930.28;;;3.82;66.41
46944;BME280;32678;43.852;25.952;2022-12-20T15:20:25;102926.94;;;3.85;66.79
46944;BME280;32678;43.852;25.952;2022-12-20T15:25:22;102926.00;;;3.83;66.27
46944;BME280;32678;43.852;25.952;2022-12-20T15:30:19;102924.16;;;3.79;66.63
46944;BME280;32678;43.852;25.952;2022-12-20T15:35:16;102921.56;;;3.51;66.99
46944;BME280;32678;43.852;25.952;2022-12-20T15:40:13;102918.34;;;3.04;69.23
46944;BME280;32678;43.852;25.952;2022-12-20T15:45:11;102922.94;;;2.60;71.14
46944;BME280;32678;43.852;25.952;2022-12-20T15:50:08;102917.75;;;2.35;72.25
46944;BME280;32678;43.852;25.952;2022-12-20T15:55:12;102924.78;;;2.14;73.66
46944;BME280;32678;43.852;25.952;2022-12-20T16:00:11;102933.63;;;2.21;73.09
46944;BME280;32678;43.852;25.952;2022-12-20T16:05:09;102926.94;;;1.57;76.34
46944;BME280;32678;43.852;25.952;2022-12-20T16:10:08;102919.28;;;1.83;76.26
46944;BME280;32678;43.852;25.952;2022-12-20T16:15:08;102919.84;;;1.52;76.94
46944;BME280;32678;43.852;25.952;2022-12-20T16:20:19;102917.69;;;1.40;78.30
46944;BME280;32678;43.852;25.952;2022-12-20T16:25:22;102917.75;;;1.42;78.08
46944;BME280;32678;43.852;25.952;2022-12-20T16:30:20;102916.31;;;1.27;78.85
46944;BME280;32678;43.852;25.952;2022-12-20T16:35:21;102910.66;;;1.38;78.88
46944;BME280;32678;43.852;25.952;2022-12-20T16:40:18;102902.81;;;1.35;78.34
46944;BME280;32678;43.852;25.952;2022-12-20T16:45:19;102902.47;;;1.05;80.27
46944;BME280;32678;43.852;25.952;2022-12-20T16:50:20;102897.84;;;0.96;80.05
46944;BME280;32678;43.852;25.952;2022-12-20T16:55:18;102902.88;;;0.93;80.80
46944;BME280;32678;43.852;25.952;2022-12-20T17:00:16;102896.41;;;1.25;79.93
46944;BME280;32678;43.852;25.952;2022-12-20T17:05:17;102897.81;;;1.17;79.33
46944;BME280;32678;43.852;25.952;2022-12-20T17:10:18;102899.28;;;1.10;79.25
46944;BME280;32678;43.852;25.952;2022-12-20T17:15:19;102896.97;;;0.96;79.31
46944;BME280;32678;43.852;25.952;2022-12-20T17:20:22;102897.28;;;1.25;78.91
46944;BME280;32678;43.852;25.952;2022-12-20T17:25:26;102889.66;;;1.28;77.64
46944;BME280;32678;43.852;25.952;2022-12-20T17:30:26;102883.41;;;1.01;77.98
46944;BME280;32678;43.852;25.952;2022-12-20T17:35:24;102879.41;;;1.09;78.42
46944;BME280;32678;43.852;25.952;2022-12-20T17:40:22;102884.56;;;0.87;78.28
46944;BME280;32678;43.852;25.952;2022-12-20T17:45:24;102873.97;;;0.81;79.11
46944;BME280;32678;43.852;25.952;2022-12-20T17:50:22;102878.78;;;0.72;78.96
46944;BME280;32678;43.852;25.952;2022-12-20T17:55:22;102862.91;;;0.63;78.71
46944;BME280;32678;43.852;25.952;2022-12-20T18:00:24;102855.53;;;0.72;78.53
46944;BME280;32678;43.852;25.952;2022-12-20T18:05:22;102854.91;;;0.77;78.54
46944;BME280;32678;43.852;25.952;2022-12-20T18:10:21;102850.00;;;0.63;78.88
46944;BME280;32678;43.852;25.952;2022-12-20T18:15:18;102847.47;;;0.43;79.76
46944;BME280;32678;43.852;25.952;2022-12-20T18:20:15;102826.84;;;0.43;79.64
46944;BME280;32678;43.852;25.952;2022-12-20T18:25:12;102832.97;;;0.26;80.28
46944;BME280;32678;43.852;25.952;2022-12-20T18:30:12;102815.72;;;0.25;80.35
46944;BME280;32678;43.852;25.952;2022-12-20T18:35:09;102808.53;;;0.37;79.90
46944;BME280;32678;43.852;25.952;2022-12-20T18:40:07;102812.59;;;0.32;79.97
46944;BME280;32678;43.852;25.952;2022-12-20T18:45:05;102806.63;;;0.33;79.97
46944;BME280;32678;43.852;25.952;2022-12-20T18:50:06;102800.63;;;0.55;79.02
46944;BME280;32678;43.852;25.952;2022-12-20T18:55:08;102802.66;;;0.41;79.80
46944;BME280;32678;43.852;25.952;2022-12-20T19:00:08;102798.75;;;0.10;81.61
46944;BME280;32678;43.852;25.952;2022-12-20T19:05:08;102802.69;;;0.02;81.13
46944;BME280;32678;43.852;25.952;2022-12-20T19:10:05;102803.63;;;-0.36;83.23
46944;BME280;32678;43.852;25.952;2022-12-20T19:15:04;102800.28;;;-0.15;83.58
46944;BME280;32678;43.852;25.952;2022-12-20T19:20:00;102795.22;;;-0.32;84.05
46944;BME280;32678;43.852;25.952;2022-12-20T19:24:57;102795.88;;;-0.36;84.58
46944;BME280;32678;43.852;25.952;2022-12-20T19:29:54;102783.47;;;-0.26;84.08
46944;BME280;32678;43.852;25.952;2022-12-20T19:34:51;102786.53;;;-0.34;83.18
46944;BME280;32678;43.852;25.952;2022-12-20T19:39:48;102780.56;;;-0.53;85.07
46944;BME280;32678;43.852;25.952;2022-12-20T19:44:44;102776.91;;;-0.58;85.33
46944;BME280;32678;43.852;25.952;2022-12-20T19:49:41;102783.50;;;-0.64;86.42
46944;BME280;32678;43.852;25.952;2022-12-20T19:54:38;102770.13;;;-0.36;85.66
46944;BME280;32678;43.852;25.952;2022-12-20T19:59:35;102773.03;;;-0.48;86.14
46944;BME280;32678;43.852;25.952;2022-12-20T20:04:32;102763.41;;;-0.33;86.59
46944;BME280;32678;43.852;25.952;2022-12-20T20:09:28;102765.22;;;-0.11;84.80
46944;BME280;32678;43.852;25.952;2022-12-20T20:14:26;102762.16;;;-0.22;84.30
46944;BME280;32678;43.852;25.952;2022-12-20T20:19:22;102746.50;;;-0.26;84.70
46944;BME280;32678;43.852;25.952;2022-12-20T20:24:19;102725.84;;;-0.47;86.22
46944;BME280;32678;43.852;25.952;2022-12-20T20:29:16;102731.13;;;-0.25;86.45
46944;BME280;32678;43.852;25.952;2022-12-20T20:34:13;102729.66;;;-0.18;85.11
46944;BME280;32678;43.852;25.952;2022-12-20T20:39:10;102730.13;;;0.13;86.03
46944;BME280;32678;43.852;25.952;2022-12-20T20:44:08;102716.53;;;0.17;84.23
46944;BME280;32678;43.852;25.952;2022-12-20T20:49:05;102709.59;;;0.16;83.47
46944;BME280;32678;43.852;25.952;2022-12-20T20:54:03;102704.38;;;0.58;83.35
46944;BME280;32678;43.852;25.952;2022-12-20T20:59:00;102702.91;;;0.86;81.94
46944;BME280;32678;43.852;25.952;2022-12-20T21:04:04;102686.28;;;1.02;80.40
46944;BME280;32678;43.852;25.952;2022-12-20T21:09:01;102688.31;;;0.87;80.44
46944;BME280;32678;43.852;25.952;2022-12-20T21:13:58;102683.56;;;0.99;80.34
46944;BME280;32678;43.852;25.952;2022-12-20T21:18:55;102683.66;;;0.78;81.56
46944;BME280;32678;43.852;25.952;2022-12-20T21:23:53;102676.00;;;0.58;81.42
46944;BME280;32678;43.852;25.952;2022-12-20T21:28:49;102680.31;;;0.36;82.90
46944;BME280;32678;43.852;25.952;2022-12-20T21:33:54;102674.50;;;0.86;82.59
46944;BME280;32678;43.852;25.952;2022-12-20T21:38:52;102664.72;;;0.78;81.34
46944;BME280;32678;43.852;25.952;2022-12-20T21:43:49;102661.84;;;0.93;81.16
46944;BME280;32678;43.852;25.952;2022-12-20T21:48:46;102646.66;;;1.02;80.88
46944;BME280;32678;43.852;25.952;2022-12-20T21:53:45;102651.06;;;0.14;82.81
46944;BME280;32678;43.852;25.952;2022-12-20T21:58:42;102633.88;;;0.36;83.65
46944;BME280;32678;43.852;25.952;2022-12-20T22:03:40;102617.06;;;0.24;83.30
46944;BME280;32678;43.852;25.952;2022-12-20T22:08:39;102618.22;;;0.32;83.37
46944;BME280;32678;43.852;25.952;2022-12-20T22:13:37;102619.97;;;0.11;84.93
46944;BME280;32678;43.852;25.952;2022-12-20T22:18:40;102624.31;;;0.12;84.29
46944;BME280;32678;43.852;25.952;2022-12-20T22:23:38;102596.03;;;-0.08;85.53
46944;BME280;32678;43.852;25.952;2022-12-20T22:28:36;102606.16;;;-0.12;86.97
46944;BME280;32678;43.852;25.952;2022-12-20T22:33:33;102598.31;;;-0.15;87.08
46944;BME280;32678;43.852;25.952;2022-12-20T22:38:31;102588.41;;;-0.05;86.71
46944;BME280;32678;43.852;25.952;2022-12-20T22:43:28;102597.72;;;-0.30;86.97
46944;BME280;32678;43.852;25.952;2022-12-20T22:48:27;102589.75;;;-0.14;87.85
46944;BME280;32678;43.852;25.952;2022-12-20T22:53:24;102585.94;;;0.19;87.39
46944;BME280;32678;43.852;25.952;2022-12-20T22:58:23;102575.75;;;0.02;85.50
46944;BME280;32678;43.852;25.952;2022-12-20T23:03:20;102577.00;;;-0.11;86.78
46944;BME280;32678;43.852;25.952;2022-12-20T23:08:21;102566.25;;;-0.22;86.59
46944;BME280;32678;43.852;25.952;2022-12-20T23:13:18;102567.22;;;0.03;87.75
46944;BME280;32678;43.852;25.952;2022-12-20T23:18:34;102549.59;;;0.13;86.83
46944;BME280;32678;43.852;25.952;2022-12-20T23:23:31;102551.56;;;0.20;85.38
46944;BME280;32678;43.852;25.952;2022-12-20T23:28:28;102544.66;;;-0.25;86.38
46944;BME280;32678;43.852;25.952;2022-12-20T23:33:25;102545.81;;;-0.39;87.88
46944;BME280;32678;43.852;25.952;2022-12-20T23:38:24;102536.00;;;-0.05;87.77
46944;BME280;32678;43.852;25.952;2022-12-20T23:43:21;102534.56;;;-0.19;86.92
46944;BME280;32678;43.852;25.952;2022-12-20T23:48:18;102538.84;;;-0.20;86.98
46944;BME280;32678;43.852;25.952;2022-12-20T23:53:14;102533.53;;;-0.02;85.21
46944;BME280;32678;43.852;25.952;2022-12-20T23:58:11;102535.84;;;-0.30;87.01
